Time;durP1;ratioP1;P1;durP2;ratioP2;P2;SDS_P1;SDS_P2;PMS_P1;PMS_P2;Temp;Humidity;BMP_temperature;BMP_pressure;BME280_temperature;BME280_humidity;BME280_pressure;Samples;Min_cycle;Max_cycle;Signal;HPM_P1;HPM_P2
2024/03/05 00:00:14;;;;;;;14.05;7.90;;;;;;;11.16;61.51;98618.00;4966213;28;20022;-92
2024/03/05 00:02:40;;;;;;;14.65;7.85;;;;;;;11.28;61.45;98631.03;4967396;28;20030;-93
2024/03/05 00:05:07;;;;;;;19.63;7.70;;;;;;;11.45;61.03;98647.50;4982129;28;20045;-92
2024/03/05 00:07:35;;;;;;;11.57;6.90;;;;;;;11.36;61.02;98626.91;4980732;28;20038;-93
2024/03/05 00:10:05;;;;;;;15.95;8.00;;;;;;;11.50;61.02;98650.13;4980727;28;20473;-94
2024/03/05 00:12:31;;;;;;;16.10;7.15;;;;;;;11.42;60.88;98634.59;4965503;28;20165;-93
2024/03/05 00:14:56;;;;;;;14.55;6.80;;;;;;;11.42;61.00;98623.03;4964641;28;20030;-92
2024/03/05 00:17:23;;;;;;;11.90;7.07;;;;;;;11.49;60.82;98636.94;4965094;28;20030;-93
2024/03/05 00:19:50;;;;;;;12.90;7.18;;;;;;;11.39;61.10;98624.41;4964682;28;20119;-92
2024/03/05 00:22:15;;;;;;;13.65;7.22;;;;;;;11.40;61.13;98622.53;4979682;28;20034;-93
2024/03/05 00:24:41;;;;;;;12.23;7.50;;;;;;;11.34;61.21;98611.00;4964725;28;20033;-93
2024/03/05 00:27:07;;;;;;;14.02;6.97;;;;;;;11.35;61.05;98611.81;4965196;28;20039;-92
2024/03/05 00:29:32;;;;;;;12.63;7.57;;;;;;;11.31;61.09;98603.53;4983916;28;20120;-92
2024/03/05 00:31:58;;;;;;;14.45;7.43;;;;;;;11.40;61.24;98619.84;4984081;28;20095;-93
2024/03/05 00:34:23;;;;;;;11.70;6.93;;;;;;;11.37;61.34;98618.53;4983745;28;20030;-93
2024/03/05 00:36:49;;;;;;;11.52;7.53;;;;;;;11.33;61.29;98601.34;4967833;28;20109;-92
2024/03/05 00:39:14;;;;;;;12.63;7.85;;;;;;;11.39;61.18;98605.53;4984570;28;20033;-91
2024/03/05 00:41:41;;;;;;;15.98;8.50;;;;;;;11.36;61.41;98594.56;4966994;28;20076;-93
2024/03/05 00:44:07;;;;;;;12.07;7.25;;;;;;;11.27;61.64;98595.22;4969234;28;20041;-94
2024/03/05 00:46:32;;;;;;;12.20;7.15;;;;;;;11.35;61.55;98609.94;4967007;28;20057;-92
2024/03/05 00:48:58;;;;;;;14.55;7.65;;;;;;;11.17;61.79;98584.59;4983505;28;20499;-93
2024/03/05 00:51:24;;;;;;;14.25;7.75;;;;;;;11.04;61.98;98580.72;4967399;28;20046;-95
2024/03/05 00:53:49;;;;;;;11.82;8.00;;;;;;;11.02;62.25;98585.59;4966342;28;20034;-94
2024/03/05 00:56:15;;;;;;;17.20;8.02;;;;;;;11.03;62.15;98600.66;4968010;28;20037;-93
2024/03/05 00:58:40;;;;;;;16.15;8.00;;;;;;;10.96;62.50;98576.00;4964585;28;20030;-93
2024/03/05 01:01:07;;;;;;;14.93;8.15;;;;;;;10.95;62.47;98571.69;4964866;28;20029;-94
2024/03/05 01:03:33;;;;;;;21.20;7.72;;;;;;;11.03;62.90;98586.41;4964647;28;20031;-93
2024/03/05 01:05:58;;;;;;;14.05;8.43;;;;;;;10.91;63.46;98590.34;4947947;28;20519;-93
2024/03/05 01:08:24;;;;;;;13.45;7.63;;;;;;;10.88;63.51;98598.19;4948945;28;20049;-93
2024/03/05 01:10:49;;;;;;;13.05;6.90;;;;;;;10.75;63.90;98582.72;4964821;28;20030;-93
2024/03/05 01:13:15;;;;;;;19.73;7.13;;;;;;;10.82;63.75;98580.47;4963068;28;20068;-93
2024/03/05 01:15:41;;;;;;;15.40;7.15;;;;;;;10.80;63.96;98588.84;4964594;28;20029;-94
2024/03/05 01:18:07;;;;;;;14.63;7.60;;;;;;;10.73;63.63;98583.03;4964696;28;20385;-94
2024/03/05 01:20:32;;;;;;;16.80;8.20;;;;;;;10.69;63.83;98576.63;4947432;28;20055;-92
2024/03/05 01:22:58;;;;;;;15.32;8.20;;;;;;;10.80;63.93;98605.00;4963988;28;20026;-93
2024/03/05 01:25:24;;;;;;;18.23;8.45;;;;;;;10.80;64.25;98599.63;4964211;28;20026;-93
2024/03/05 01:27:49;;;;;;;15.73;9.18;;;;;;;10.83;64.40;98588.28;4961120;28;20053;-94
2024/03/05 01:30:15;;;;;;;17.65;8.63;;;;;;;10.84;64.13;98589.06;4961236;28;20474;-92
2024/03/05 01:32:43;;;;;;;15.18;8.43;;;;;;;10.95;64.28;98603.19;4959949;28;20034;-93
2024/03/05 01:35:10;;;;;;;14.55;9.10;;;;;;;10.62;64.87;98571.56;4945595;28;20555;-93
2024/03/05 01:37:37;;;;;;;15.80;8.65;;;;;;;10.65;65.04;98583.66;4945804;28;20051;-92
2024/03/05 01:40:04;;;;;;;19.25;8.88;;;;;;;10.76;64.71;98579.75;4960059;28;20386;-92
2024/03/05 01:42:30;;;;;;;16.08;8.90;;;;;;;10.70;64.88;98572.81;4961032;28;20492;-91
2024/03/05 01:44:55;;;;;;;13.82;8.48;;;;;;;10.75;64.61;98570.06;4944547;28;20061;-92
2024/03/05 01:47:21;;;;;;;15.20;8.95;;;;;;;10.67;64.63;98552.66;4960456;28;20130;-93
2024/03/05 01:49:46;;;;;;;15.40;9.25;;;;;;;10.68;64.77;98558.84;4959689;28;20026;-91
2024/03/05 01:52:14;;;;;;;17.13;8.88;;;;;;;10.81;64.74;98589.63;4945351;28;20042;-93
2024/03/05 01:54:39;;;;;;;17.55;9.18;;;;;;;10.83;64.82;98582.91;4944891;28;20058;-92
2024/03/05 01:57:05;;;;;;;13.32;8.73;;;;;;;10.70;64.79;98570.13;4944255;28;20489;-92
2024/03/05 01:59:30;;;;;;;18.15;8.52;;;;;;;10.62;64.96;98568.06;4945396;28;20034;-93
2024/03/05 02:01:59;;;;;;;14.68;8.73;;;;;;;10.67;65.19;98574.19;4944979;28;20030;-93
2024/03/05 02:04:24;;;;;;;18.55;10.00;;;;;;;10.75;65.12;98583.53;4943497;28;20031;-92
2024/03/05 02:06:53;;;;;;;14.82;9.15;;;;;;;10.71;65.12;98580.63;4944025;28;20114;-94
2024/03/05 02:09:21;;;;;;;15.02;9.05;;;;;;;10.79;64.98;98597.19;4947910;28;20037;-93
2024/03/05 02:11:47;;;;;;;15.82;9.27;;;;;;;10.67;64.96;98576.91;4962854;28;20023;-93
2024/03/05 02:14:12;;;;;;;13.43;8.55;;;;;;;10.55;65.25;98573.81;4960754;28;20105;-93
2024/03/05 02:16:38;;;;;;;22.00;10.73;;;;;;;10.52;65.52;98571.69;4960688;28;20031;-93
2024/03/05 02:19:04;;;;;;;19.63;10.73;;;;;;;10.46;65.92;98570.97;4944335;28;20023;-91
2024/03/05 02:21:31;;;;;;;16.63;8.95;;;;;;;10.59;65.93;98582.13;4945453;28;20082;-92
2024/03/05 02:23:57;;;;;;;19.38;9.65;;;;;;;10.47;65.81;98569.06;4959312;28;20094;-92
2024/03/05 02:26:24;;;;;;;16.63;10.07;;;;;;;10.45;65.87;98563.16;4944575;28;20417;-92
2024/03/05 02:28:49;;;;;;;17.55;9.98;;;;;;;10.41;65.96;98559.44;4944673;28;20058;-92
2024/03/05 02:31:15;;;;;;;17.25;10.07;;;;;;;10.36;66.08;98554.94;4944302;28;20469;-91
2024/03/05 02:33:42;;;;;;;20.13;10.10;;;;;;;10.47;65.90;98569.84;4944514;28;20027;-92
2024/03/05 02:36:08;;;;;;;22.13;10.18;;;;;;;10.40;66.04;98560.56;4944744;28;20052;-92
2024/03/05 02:38:34;;;;;;;18.52;9.35;;;;;;;10.57;66.13;98590.47;4943791;28;20027;-93
2024/03/05 02:40:59;;;;;;;18.58;9.65;;;;;;;10.51;65.70;98583.56;4944852;28;20015;-94
2024/03/05 02:43:25;;;;;;;15.85;9.73;;;;;;;10.53;65.93;98589.44;4943472;28;20062;-94
2024/03/05 02:45:50;;;;;;;20.27;10.60;;;;;;;10.39;65.92;98553.56;4944320;28;20026;-93
2024/03/05 02:48:16;;;;;;;19.25;10.48;;;;;;;10.25;66.69;98551.53;4959692;28;20031;-94
2024/03/05 02:50:43;;;;;;;19.63;11.40;;;;;;;10.23;67.00;98556.41;4943693;28;20023;-93
2024/03/05 02:53:08;;;;;;;19.33;11.00;;;;;;;10.39;67.18;98583.16;4944194;28;20035;-93
2024/03/05 02:55:37;;;;;;;24.85;11.63;;;;;;;10.17;67.23;98557.53;4943861;28;20091;-93
2024/03/05 02:58:03;;;;;;;24.85;10.55;;;;;;;10.25;67.28;98562.28;4961015;28;20043;-92
2024/03/05 03:00:29;;;;;;;17.88;9.73;;;;;;;10.30;66.91;98578.41;4944554;28;20014;-92
2024/03/05 03:02:54;;;;;;;17.58;10.00;;;;;;;10.18;66.92;98553.75;4963274;28;20077;-92
2024/03/05 03:05:23;;;;;;;20.52;10.80;;;;;;;10.19;67.20;98566.13;4946932;28;20027;-92
2024/03/05 03:07:48;;;;;;;24.05;11.23;;;;;;;10.19;66.93;98560.75;4983706;28;20539;-92
2024/03/05 03:10:14;;;;;;;19.55;10.63;;;;;;;10.29;66.79;98581.34;4966036;28;20026;-92
2024/03/05 03:12:40;;;;;;;21.27;10.65;;;;;;;10.28;66.81;98577.84;4967521;28;20034;-92
2024/03/05 03:15:09;;;;;;;19.67;10.57;;;;;;;10.22;66.98;98567.44;4981698;28;20062;-92
2024/03/05 03:17:40;;;;;;;21.95;11.48;;;;;;;10.35;66.88;98592.88;4967089;28;20117;-91
2024/03/05 03:20:26;;;;;;;25.38;11.57;;;;;;;10.32;67.11;98581.59;4965616;28;20033;-92
2024/03/05 03:22:52;;;;;;;20.77;11.23;;;;;;;10.10;67.13;98557.06;4982488;28;20034;-91
2024/03/05 03:25:17;;;;;;;20.85;11.60;;;;;;;10.14;67.15;98560.00;4965791;28;20030;-93
2024/03/05 03:27:43;;;;;;;23.27;12.20;;;;;;;10.23;67.35;98563.66;4966698;28;20194;-93
2024/03/05 03:30:14;;;;;;;23.30;11.63;;;;;;;10.12;67.21;98557.59;4966085;28;20038;-92
2024/03/05 03:32:41;;;;;;;20.90;12.40;;;;;;;10.05;67.62;98555.22;4967144;28;20117;-92
2024/03/05 03:35:08;;;;;;;21.40;11.70;;;;;;;10.08;67.60;98568.09;4983103;28;20010;-93
2024/03/05 03:37:34;;;;;;;25.58;12.77;;;;;;;10.10;67.70;98571.31;4965112;28;20027;-93
2024/03/05 03:40:00;;;;;;;22.20;12.15;;;;;;;10.05;67.58;98565.19;4966491;28;20031;-93
2024/03/05 03:42:25;;;;;;;24.95;12.15;;;;;;;9.93;67.73;98552.13;4967700;28;20567;-93
2024/03/05 03:44:51;;;;;;;20.58;11.73;;;;;;;9.97;68.11;98566.63;4981592;28;20026;-93
2024/03/05 03:47:16;;;;;;;22.80;12.45;;;;;;;9.95;68.14;98557.22;4983116;28;20374;-92
2024/03/05 03:49:48;;;;;;;21.48;11.85;;;;;;;9.87;68.30;98558.63;4964972;28;20033;-92
2024/03/05 03:52:16;;;;;;;20.73;11.43;;;;;;;9.82;68.59;98556.81;4965664;28;20039;-92
2024/03/05 03:54:42;;;;;;;26.50;10.65;;;;;;;9.82;68.20;98558.72;4966087;28;20061;-92
2024/03/05 03:57:08;;;;;;;20.13;10.98;;;;;;;9.84;68.06;98568.09;4964695;28;20042;-92
2024/03/05 03:59:34;;;;;;;18.10;9.77;;;;;;;9.65;68.45;98543.78;4965073;28;20042;-93
2024/03/05 04:01:59;;;;;;;20.23;11.07;;;;;;;9.64;68.23;98544.06;4982118;28;20027;-92
2024/03/05 04:04:25;;;;;;;18.67;10.07;;;;;;;9.63;68.00;98545.97;4965611;28;20041;-92
2024/03/05 04:06:50;;;;;;;18.95;9.13;;;;;;;9.60;67.84;98540.34;4965544;28;20034;-92
2024/03/05 04:09:16;;;;;;;17.35;8.60;;;;;;;9.64;67.95;98560.19;4965544;28;20041;-92
2024/03/05 04:11:42;;;;;;;16.60;9.18;;;;;;;9.75;67.73;98577.81;4963617;28;20489;-91
2024/03/05 04:14:07;;;;;;;15.88;9.00;;;;;;;9.73;67.96;98573.81;4964733;28;20030;-92
2024/03/05 04:16:33;;;;;;;15.40;8.07;;;;;;;9.73;67.50;98571.13;4965264;28;20024;-91
2024/03/05 04:18:58;;;;;;;14.98;8.50;;;;;;;9.55;67.47;98543.09;4964615;28;20026;-92
2024/03/05 04:21:25;;;;;;;19.85;8.95;;;;;;;9.59;67.62;98561.06;4965845;28;20121;-93
2024/03/05 04:23:53;;;;;;;12.70;8.13;;;;;;;9.58;67.28;98555.94;4965140;28;20030;-92
2024/03/05 04:26:23;;;;;;;15.50;8.23;;;;;;;9.55;67.85;98559.22;4965212;28;20026;-92
2024/03/05 04:28:53;;;;;;;14.82;8.15;;;;;;;9.52;67.86;98549.81;4966882;28;20046;-92
2024/03/05 04:31:20;;;;;;;16.45;8.57;;;;;;;9.48;67.67;98546.91;4964847;28;20479;-93
2024/03/05 04:33:48;;;;;;;17.08;8.95;;;;;;;9.58;67.53;98567.50;4965364;28;20026;-92
2024/03/05 04:36:17;;;;;;;15.98;8.80;;;;;;;9.56;67.70;98564.28;4965387;28;20050;-93
2024/03/05 04:38:43;;;;;;;15.52;9.13;;;;;;;9.51;68.11;98561.66;4964698;28;20117;-93
2024/03/05 04:41:10;;;;;;;18.55;8.52;;;;;;;9.43;67.87;98563.06;4964966;28;20053;-93
2024/03/05 04:43:37;;;;;;;15.77;9.20;;;;;;;9.49;67.91;98567.31;4966755;28;20026;-91
2024/03/05 04:46:03;;;;;;;15.95;9.60;;;;;;;9.48;68.00;98564.88;4985615;28;20026;-93
2024/03/05 05:17:14;;;;;;;33.78;14.68;;;;;;;9.47;68.07;98576.75;4977634;28;20078;-92
2024/03/05 05:19:40;;;;;;;44.22;16.20;;;;;;;9.41;67.81;98564.41;4956382;28;20046;-93
2024/03/05 05:22:06;;;;;;;36.72;14.48;;;;;;;9.58;67.84;98577.44;4972784;28;20369;-93
2024/03/05 05:24:38;;;;;;;33.38;13.15;;;;;;;9.69;67.79;98585.16;4977437;28;20022;-92
2024/03/05 05:27:04;;;;;;;34.10;21.38;;;;;;;9.73;67.72;98588.06;4966250;28;20093;-93
2024/03/05 05:29:38;;;;;;;163.68;137.73;;;;;;;9.71;67.56;98582.16;4965932;28;20061;-92
2024/03/05 05:32:06;;;;;;;20.75;11.10;;;;;;;9.70;67.29;98586.75;4981967;28;20026;-92
2024/03/05 05:35:18;;;;;;;20.63;9.73;;;;;;;9.78;67.02;98569.22;4965817;28;20029;-91
2024/03/05 05:37:44;;;;;;;24.48;11.00;;;;;;;10.06;66.64;98596.38;4957353;28;20039;-94
2024/03/05 05:40:10;;;;;;;26.90;11.70;;;;;;;10.25;66.58;98620.66;4965126;28;20026;-93
2024/03/05 05:42:37;;;;;;;23.52;10.68;;;;;;;10.34;65.98;98619.00;4964027;28;20026;-94
2024/03/05 05:45:08;;;;;;;26.40;11.35;;;;;;;10.26;65.94;98606.94;4964282;28;20033;-94
2024/03/05 05:47:35;;;;;;;24.15;10.95;;;;;;;10.32;65.25;98600.44;4966639;28;20432;-93
2024/03/05 05:50:02;;;;;;;21.23;11.43;;;;;;;10.45;64.95;98611.63;4965492;28;20026;-93
2024/03/05 05:52:27;;;;;;;16.65;9.82;;;;;;;10.51;64.63;98603.19;4966093;28;20026;-93
2024/03/05 05:54:58;;;;;;;19.38;9.07;;;;;;;10.52;64.45;98603.97;4981747;28;20029;-93
2024/03/05 05:57:24;;;;;;;15.57;9.30;;;;;;;10.54;64.26;98595.63;4965180;28;20070;-92
2024/03/05 05:59:54;;;;;;;19.23;10.73;;;;;;;10.81;64.00;98627.34;4964811;28;20424;-94
2024/03/05 06:02:20;;;;;;;21.63;10.93;;;;;;;10.78;63.79;98612.56;4966820;28;20022;-93
2024/03/05 06:04:46;;;;;;;24.27;13.00;;;;;;;10.74;63.58;98592.69;4966375;28;20057;-94
2024/03/05 06:07:11;;;;;;;30.75;14.20;;;;;;;10.91;63.54;98602.97;4966540;28;20054;-94
2024/03/05 06:09:40;;;;;;;26.35;12.20;;;;;;;11.09;63.08;98623.75;4966538;28;20019;-93
2024/03/05 06:12:22;;;;;;;23.80;12.00;;;;;;;11.01;62.73;98602.84;4966563;28;20022;-94
2024/03/05 06:17:24;;;;;;;25.65;11.13;;;;;;;11.23;62.09;98604.19;5562575;23;20065;-94
2024/03/05 06:19:55;;;;;;;37.65;19.20;;;;;;;11.33;61.87;98601.34;4936561;28;20477;-93
2024/03/05 06:22:20;;;;;;;39.47;18.33;;;;;;;11.52;61.42;98615.59;4953261;28;20054;-93
2024/03/05 06:24:48;;;;;;;22.85;11.75;;;;;;;11.55;61.06;98605.31;4954842;28;20034;-90
2024/03/05 06:27:13;;;;;;;27.52;13.65;;;;;;;11.71;60.92;98636.34;4959654;28;20027;-93
2024/03/05 06:29:44;;;;;;;28.67;17.00;;;;;;;11.40;61.09;98600.97;4930019;29;20027;-94
2024/03/05 06:32:12;;;;;;;23.35;13.63;;;;;;;11.48;61.01;98600.31;4929866;29;20023;-96
2024/03/05 06:35:23;;;;;;;20.67;10.77;;;;;;;11.84;60.37;98627.47;4928158;28;20418;-95
2024/03/05 06:37:50;;;;;;;19.90;11.02;;;;;;;11.85;60.26;98621.00;4964649;29;20382;-95
2024/03/05 06:40:22;;;;;;;49.13;28.77;;;;;;;11.96;60.54;98618.16;4951553;28;20026;-92
2024/03/05 06:51:55;;;;;;;24.15;12.80;;;;;;;12.10;59.67;98617.09;4970333;28;20502;-95
2024/03/05 06:57:08;;;;;;;25.73;12.07;;;;;;;12.19;59.19;98613.72;4949051;29;20042;-95
2024/03/05 07:00:15;;;;;;;18.30;9.88;;;;;;;12.44;58.98;98640.22;4941080;28;20482;-94
2024/03/05 07:02:44;;;;;;;19.70;10.02;;;;;;;12.27;58.49;98621.13;4980090;28;20125;-94
2024/03/05 07:05:12;;;;;;;21.83;10.75;;;;;;;12.42;58.70;98623.53;4947481;29;20019;-95
2024/03/05 07:11:05;;;;;;;20.70;9.77;;;;;;;12.54;57.78;98650.06;4977857;28;20061;-93
2024/03/05 07:13:51;;;;;;;20.92;11.10;;;;;;;12.37;57.86;98633.63;4931500;28;20033;-94
2024/03/05 07:16:40;;;;;;;19.30;10.00;;;;;;;12.41;58.10;98650.81;4939750;28;20323;-95
2024/03/05 07:19:08;;;;;;;21.02;10.18;;;;;;;12.19;58.33;98635.31;4979598;28;20050;-95
2024/03/05 07:21:37;;;;;;;21.00;11.05;;;;;;;12.19;58.30;98638.78;4951349;28;20046;-94
2024/03/05 07:27:38;;;;;;;17.60;11.27;;;;;;;12.01;59.08;98634.25;4967576;28;20042;-95
2024/03/05 07:30:22;;;;;;;19.20;10.23;;;;;;;12.08;59.07;98650.88;4970007;28;20092;-94
2024/03/05 07:36:33;;;;;;;;;;;;;;;;;;;;;
2024/03/05 07:38:59;;;;;;;25.20;11.32;;;;;;;12.11;58.39;98636.78;4963741;28;20098;-92
2024/03/05 07:41:24;;;;;;;20.10;12.07;;;;;;;12.02;58.76;98646.66;4959733;29;20062;-93
2024/03/05 07:43:50;;;;;;;21.80;11.90;;;;;;;12.09;58.76;98653.25;4953446;28;20037;-94
2024/03/05 07:46:18;;;;;;;23.88;10.02;;;;;;;11.97;58.88;98652.13;4961545;28;20474;-93
2024/03/05 07:48:46;;;;;;;19.80;10.48;;;;;;;12.11;59.14;98659.16;4955916;28;20055;-92
2024/03/05 07:51:11;;;;;;;22.48;12.02;;;;;;;12.18;58.53;98642.63;4973113;28;20034;-93
2024/03/05 07:53:37;;;;;;;19.67;10.63;;;;;;;12.49;58.40;98671.72;4950987;28;20030;-93
2024/03/05 08:00:24;;;;;;;120.93;59.35;;;;;;;12.85;57.21;98677.28;4957088;29;20034;-96
2024/03/05 08:02:53;;;;;;;19.23;11.93;;;;;;;12.71;56.46;98647.53;4965418;28;20053;-94
2024/03/05 08:05:23;;;;;;;21.40;10.77;;;;;;;12.63;56.92;98644.75;4964832;28;20046;-94
2024/03/05 08:18:47;;;;;;;19.20;11.02;;;;;;;12.50;57.78;98671.44;4941787;29;20054;-94
2024/03/05 08:21:26;;;;;;;18.42;9.95;;;;;;;12.33;57.93;98655.81;4921673;29;20115;-94
2024/03/05 08:23:53;;;;;;;23.98;12.32;;;;;;;12.32;58.19;98658.81;4947342;28;20048;-92
2024/03/05 08:26:25;;;;;;;20.30;10.85;;;;;;;12.30;58.23;98656.41;4965369;28;20050;-92
2024/03/05 08:29:23;;;;;;;18.17;10.10;;;;;;;12.55;57.90;98662.44;4948452;28;20034;-89
2024/03/05 08:31:49;;;;;;;38.70;19.60;;;;;;;12.59;57.83;98662.66;4903890;28;20474;-90
2024/03/05 08:34:15;;;;;;;18.67;10.75;;;;;;;12.81;57.35;98672.78;4937336;28;20031;-90
2024/03/05 08:36:53;;;;;;;23.33;10.07;;;;;;;12.98;57.00;98697.28;4937811;28;20058;-93
2024/03/05 08:39:18;;;;;;;17.67;10.45;;;;;;;12.92;56.65;98660.66;4968982;28;20122;-92
2024/03/05 08:41:54;;;;;;;17.70;10.35;;;;;;;12.98;56.55;98682.97;4957060;28;20505;-94
2024/03/05 08:44:38;;;;;;;18.75;11.35;;;;;;;13.08;56.36;98694.38;4963777;28;20034;-94
2024/03/05 08:47:45;;;;;;;20.85;11.43;;;;;;;12.72;56.59;98657.25;4952358;28;20035;-96
2024/03/05 08:51:08;;;;;;;19.67;11.77;;;;;;;12.90;56.81;98682.56;4956030;28;20061;-94
2024/03/05 08:57:26;;;;;;;19.98;12.13;;;;;;;12.55;57.10;98640.84;4924701;29;20077;-92
2024/03/05 09:07:01;;;;;;;19.27;11.73;;;;;;;12.66;57.56;98682.78;4925773;29;20039;-94
2024/03/05 09:09:30;;;;;;;20.00;12.48;;;;;;;12.52;57.38;98663.84;4933874;28;20050;-93
2024/03/05 09:12:13;;;;;;;21.85;12.68;;;;;;;12.27;57.87;98646.22;4966281;28;20062;-93
2024/03/05 09:15:00;;;;;;;19.23;12.70;;;;;;;12.30;57.80;98661.81;4964860;28;20031;-94
2024/03/05 09:17:26;;;;;;;19.17;12.10;;;;;;;12.25;57.99;98653.00;4946924;28;20078;-90
2024/03/05 09:19:52;;;;;;;22.00;11.57;;;;;;;12.58;57.23;98671.88;4943699;29;20117;-91
2024/03/05 09:22:19;;;;;;;29.60;11.50;;;;;;;12.51;56.62;98658.72;4953827;28;20093;-89
2024/03/05 09:25:09;;;;;;;23.80;11.52;;;;;;;12.72;56.80;98688.84;4953633;28;20371;-91
2024/03/05 09:27:40;;;;;;;18.92;11.52;;;;;;;12.47;56.77;98646.94;4956982;28;20023;-90
2024/03/05 09:30:08;;;;;;;19.63;10.85;;;;;;;12.49;57.05;98658.22;4954152;28;20062;-90
2024/03/05 09:32:35;;;;;;;17.85;11.15;;;;;;;12.56;56.92;98658.66;4949545;28;20501;-90
2024/03/05 09:35:00;;;;;;;19.27;11.30;;;;;;;12.58;57.06;98661.06;4920848;28;20027;-90
2024/03/05 09:37:29;;;;;;;21.38;11.00;;;;;;;12.55;56.74;98662.44;4939886;28;20054;-90
2024/03/05 09:39:54;;;;;;;19.45;12.13;;;;;;;12.68;56.57;98667.06;4952511;28;20028;-89
2024/03/05 09:42:26;;;;;;;17.58;11.55;;;;;;;12.64;56.46;98655.25;4939396;29;20162;-89
2024/03/05 09:44:52;;;;;;;17.67;11.38;;;;;;;12.52;56.26;98660.34;4937979;28;20027;-93
2024/03/05 09:47:18;;;;;;;19.13;12.52;;;;;;;12.64;56.25;98654.47;4935599;29;20477;-91
2024/03/05 09:49:44;;;;;;;20.65;11.02;;;;;;;12.68;55.89;98645.47;4959221;28;20046;-90
2024/03/05 09:52:10;;;;;;;21.48;11.82;;;;;;;13.13;55.52;98686.13;4974475;28;20024;-89
2024/03/05 09:54:39;;;;;;;31.50;17.83;;;;;;;12.78;55.37;98657.16;4933278;29;20023;-90
2024/03/05 09:57:05;;;;;;;19.00;12.55;;;;;;;12.90;55.35;98668.25;4955456;28;20023;-93
2024/03/05 09:59:31;;;;;;;18.10;11.13;;;;;;;12.86;56.39;98694.28;4954542;28;20408;-89
2024/03/05 10:01:56;;;;;;;20.38;12.13;;;;;;;12.74;55.76;98649.66;4938668;29;20043;-90
2024/03/05 10:04:22;;;;;;;18.38;11.95;;;;;;;12.90;55.42;98654.75;4938341;29;20078;-92
2024/03/05 10:06:48;;;;;;;19.63;11.63;;;;;;;13.00;55.02;98688.88;4917760;29;20498;-91
2024/03/05 10:09:20;;;;;;;23.30;13.82;;;;;;;12.83;55.37;98659.75;4939641;28;20030;-92
2024/03/05 10:11:54;;;;;;;20.15;12.25;;;;;;;12.90;55.63;98690.66;4915359;29;20031;-90
2024/03/05 10:14:22;;;;;;;23.70;12.95;;;;;;;12.83;55.77;98682.16;4939446;29;20131;-92
2024/03/05 10:16:48;;;;;;;18.25;10.95;;;;;;;12.92;55.29;98677.66;4927088;29;20055;-92
2024/03/05 10:19:20;;;;;;;18.73;11.80;;;;;;;13.01;54.93;98679.66;4928371;29;20030;-92
2024/03/05 10:21:48;;;;;;;17.33;11.13;;;;;;;12.92;55.23;98679.56;4931993;28;20027;-91
2024/03/05 10:24:35;;;;;;;18.45;11.88;;;;;;;12.91;54.87;98667.97;4959369;28;20049;-89
2024/03/05 10:27:01;;;;;;;17.42;10.88;;;;;;;12.80;55.40;98669.25;4927969;28;20022;-89
2024/03/05 10:29:38;;;;;;;17.48;10.68;;;;;;;12.84;55.22;98670.25;4940189;28;20086;-90
2024/03/05 10:32:04;;;;;;;20.30;11.20;;;;;;;12.91;55.35;98672.56;4943639;29;20039;-91
2024/03/05 10:34:34;;;;;;;21.63;13.05;;;;;;;13.01;54.90;98656.16;4925711;29;20019;-90
2024/03/05 10:37:04;;;;;;;21.85;11.98;;;;;;;13.12;55.03;98679.16;4928018;29;20027;-90
2024/03/05 10:39:30;;;;;;;21.60;12.43;;;;;;;12.98;54.97;98669.47;4925468;29;20626;-89
2024/03/05 10:42:06;;;;;;;22.65;11.77;;;;;;;12.75;55.93;98672.06;4926392;29;20094;-90
2024/03/05 10:44:32;;;;;;;21.75;12.10;;;;;;;12.61;56.13;98658.53;4911206;29;20031;-90
2024/03/05 10:47:03;;;;;;;21.80;12.20;;;;;;;12.77;55.56;98672.56;4926120;29;20055;-90
2024/03/05 10:49:31;;;;;;;20.80;12.30;;;;;;;12.68;55.48;98647.38;4931210;29;20454;-89
2024/03/05 10:51:59;;;;;;;19.05;11.80;;;;;;;12.68;55.84;98668.97;4926368;29;20406;-90
2024/03/05 10:54:26;;;;;;;22.27;13.00;;;;;;;12.49;56.41;98644.72;4915596;29;20031;-89
2024/03/05 10:56:52;;;;;;;19.63;12.65;;;;;;;12.18;57.16;98652.59;4916476;28;20026;-90
2024/03/05 10:59:40;;;;;;;19.92;12.60;;;;;;;12.08;57.29;98635.47;4879995;29;20040;-95
2024/03/05 11:16:14;;;;;;;21.73;13.13;;;;;;;12.26;58.06;98638.41;5218028;23;20047;-90
2024/03/05 11:18:44;;;;;;;21.77;14.20;;;;;;;12.37;58.02;98639.00;4934054;28;20763;-93
2024/03/05 11:21:21;;;;;;;24.90;14.40;;;;;;;12.41;57.86;98635.44;4929585;28;20097;-93
2024/03/05 11:23:57;;;;;;;22.30;12.88;;;;;;;12.52;58.15;98649.53;4944688;29;20027;-93
2024/03/05 11:27:01;;;;;;;24.13;13.32;;;;;;;12.65;58.05;98666.84;4914875;29;20034;-93
2024/03/05 11:30:08;;;;;;;22.38;13.45;;;;;;;12.49;57.92;98637.44;4933481;28;20069;-92
2024/03/05 11:32:35;;;;;;;27.48;13.57;;;;;;;12.43;58.05;98624.31;4895767;29;20032;-92
2024/03/05 11:35:01;;;;;;;24.85;14.00;;;;;;;12.80;58.29;98668.47;4962658;28;20112;-93
2024/03/05 11:37:52;;;;;;;23.40;13.57;;;;;;;12.98;57.71;98658.66;4942670;28;20027;-93
2024/03/05 11:40:21;;;;;;;22.40;13.55;;;;;;;12.84;57.63;98648.63;4943743;28;20518;-94
2024/03/05 11:42:46;;;;;;;27.65;13.27;;;;;;;12.87;57.59;98642.66;4959995;28;20030;-93
2024/03/05 11:45:53;;;;;;;22.35;13.38;;;;;;;12.89;57.42;98636.94;4936786;28;20033;-92
2024/03/05 11:48:19;;;;;;;24.25;13.65;;;;;;;12.94;57.51;98642.22;4959254;28;20049;-92
2024/03/05 11:50:46;;;;;;;26.63;14.00;;;;;;;12.87;57.73;98633.75;4948693;28;20091;-90
2024/03/05 11:53:19;;;;;;;26.85;14.05;;;;;;;12.89;57.51;98634.25;4948308;28;20092;-93
2024/03/05 11:55:46;;;;;;;24.70;14.15;;;;;;;12.77;58.31;98629.34;4946568;28;20106;-91
2024/03/05 11:58:49;;;;;;;26.92;13.68;;;;;;;12.72;58.21;98610.53;4925591;29;20038;-95
2024/03/05 12:01:46;;;;;;;26.67;15.18;;;;;;;13.00;58.20;98649.13;4918429;29;20077;-94
2024/03/05 12:04:30;;;;;;;27.58;14.23;;;;;;;13.07;57.89;98621.69;4953131;29;20027;-96
2024/03/05 12:07:49;;;;;;;23.08;13.15;;;;;;;13.39;57.44;98644.28;4922146;29;20011;-96
2024/03/05 12:10:43;;;;;;;22.63;13.18;;;;;;;13.26;57.04;98605.31;4911392;29;20036;-94
2024/03/05 12:13:45;;;;;;;;;;;;;;;;;;;;;
2024/03/05 12:17:02;;;;;;;24.63;13.43;;;;;;;13.67;56.68;98645.00;4933101;29;20083;-95
2024/03/05 12:20:17;;;;;;;21.45;13.57;;;;;;;13.80;56.22;98652.25;4913961;28;20033;-96
2024/03/05 12:26:24;;;;;;;25.17;14.07;;;;;;;13.60;56.07;98620.28;4843921;29;20053;-94
2024/03/05 12:32:10;;;;;;;23.92;13.43;;;;;;;13.78;56.42;98642.84;4898289;29;20096;-94
2024/03/05 12:34:51;;;;;;;24.02;14.70;;;;;;;13.68;56.18;98633.06;4879547;29;20029;-95
2024/03/05 12:37:19;;;;;;;24.40;13.93;;;;;;;13.41;56.62;98615.84;4890105;29;20113;-95
2024/03/05 12:40:07;;;;;;;26.38;13.95;;;;;;;13.57;56.73;98637.91;4926816;29;20043;-95
2024/03/05 12:42:33;;;;;;;25.60;13.70;;;;;;;13.62;56.23;98618.06;4929627;29;20557;-95
2024/03/05 12:45:24;;;;;;;23.92;13.38;;;;;;;13.80;56.17;98643.31;4934521;28;20073;-95
2024/03/05 12:48:34;;;;;;;;;;;;;;;;;;;;;
2024/03/05 13:01:27;;;;;;;;;;;;;;;;;;;;;
2024/03/05 13:04:08;;;;;;;27.85;13.80;;;;;;;14.18;55.10;98662.69;4911214;29;20339;-96
2024/03/05 13:07:08;;;;;;;27.20;14.13;;;;;;;14.24;55.03;98649.84;4913114;29;20129;-96
2024/03/05 13:09:42;;;;;;;30.17;15.27;;;;;;;14.38;54.25;98658.69;4943129;29;20047;-91
2024/03/05 13:12:15;;;;;;;22.30;13.02;;;;;;;14.20;54.16;98638.81;4957670;28;20065;-88
2024/03/05 13:14:43;;;;;;;27.30;13.63;;;;;;;14.40;54.43;98669.16;4926921;29;20035;-88
2024/03/05 13:17:09;;;;;;;26.50;14.13;;;;;;;14.27;54.78;98668.16;4922815;29;20046;-87
2024/03/05 13:19:38;;;;;;;32.03;15.00;;;;;;;14.11;54.61;98648.78;4973575;28;20039;-92
2024/03/05 13:25:57;;;;;;;26.20;14.88;;;;;;;13.93;55.17;98662.22;4920173;29;20019;-89
2024/03/05 13:28:24;;;;;;;28.05;15.65;;;;;;;13.80;55.72;98679.31;4957295;29;20026;-88
2024/03/05 13:30:51;;;;;;;27.50;14.38;;;;;;;13.70;55.53;98658.72;4958906;28;20027;-88
2024/03/05 13:33:17;;;;;;;28.27;14.85;;;;;;;13.91;55.62;98685.28;4941085;29;20031;-89
2024/03/05 13:35:43;;;;;;;28.50;14.57;;;;;;;13.83;55.04;98667.88;4955877;28;20023;-89
2024/03/05 13:38:10;;;;;;;26.35;14.68;;;;;;;13.82;55.52;98698.75;4961032;29;20039;-86